Time;durP1;ratioP1;P1;durP2;ratioP2;P2;SDS_P1;SDS_P2;PMS_P1;PMS_P2;Temp;Humidity;BMP_temperature;BMP_pressure;BME280_temperature;BME280_humidity;BME280_pressure;Samples;Min_cycle;Max_cycle;Signal;HPM_P1;HPM_P2
2021/12/02 00:01:11;;;;;;;59.40;31.92;;;;;;;;;;5116464;28;20088;-72
2021/12/02 00:03:37;;;;;;;53.83;27.85;;;;;;;;;;5097715;28;20034;-74
2021/12/02 00:06:07;;;;;;;54.25;29.85;;;;;;;;;;5094218;28;20108;-74
2021/12/02 00:08:33;;;;;;;52.17;29.85;;;;;;;;;;5095214;28;20067;-72
2021/12/02 00:10:59;;;;;;;54.30;30.48;;;;;;;;;;5094411;28;20031;-74
2021/12/02 00:13:28;;;;;;;47.75;28.08;;;;;;;;;;5094306;28;20024;-74
2021/12/02 00:16:06;;;;;;;44.05;25.67;;;;;;;;;;5094258;28;20606;-74
2021/12/02 00:21:03;;;;;;;50.28;28.40;;;;;;;;;;5094235;28;20028;-73
2021/12/02 00:21:20;;;;;;;52.63;26.75;;;;;;;;;;5095297;28;20178;-74
2021/12/02 00:23:55;;;;;;;50.03;28.98;;;;;;;;;;5094110;28;20392;-73
2021/12/02 00:26:22;;;;;;;48.10;27.40;;;;;;;;;;5094057;28;20473;-74
2021/12/02 00:28:52;;;;;;;55.38;31.00;;;;;;;;;;5095256;28;20020;-73
2021/12/02 00:31:20;;;;;;;53.67;31.67;;;;;;;;;;5095242;28;20024;-73
2021/12/02 00:33:47;;;;;;;57.67;31.55;;;;;;;;;;5093894;28;20114;-73
2021/12/02 00:36:14;;;;;;;60.20;31.50;;;;;;;;;;5093884;28;20028;-74
2021/12/02 00:38:42;;;;;;;54.83;30.67;;;;;;;;;;5093734;28;20028;-74
2021/12/02 00:41:11;;;;;;;46.58;27.77;;;;;;;;;;5095019;28;20508;-74
2021/12/02 00:43:39;;;;;;;47.13;27.15;;;;;;;;;;5093724;28;20468;-74
2021/12/02 00:46:10;;;;;;;46.63;27.75;;;;;;;;;;5093601;28;20044;-74
2021/12/02 00:48:37;;;;;;;43.15;27.00;;;;;;;;;;5093607;28;20198;-74
2021/12/02 00:51:04;;;;;;;43.65;26.70;;;;;;;;;;5094823;28;20438;-74
2021/12/02 00:53:32;;;;;;;45.05;25.23;;;;;;;;;;5093563;28;20025;-73
2021/12/02 00:56:02;;;;;;;44.85;24.33;;;;;;;;;;5093492;28;20034;-74
2021/12/02 00:58:30;;;;;;;37.10;21.85;;;;;;;;;;5094747;28;20025;-74
2021/12/02 01:00:57;;;;;;;39.38;22.40;;;;;;;;;;5094675;28;20028;-73
2021/12/02 01:03:24;;;;;;;39.35;21.83;;;;;;;;;;5093404;28;20024;-74
2021/12/02 01:05:51;;;;;;;33.25;20.27;;;;;;;;;;5112553;28;20052;-73
2021/12/02 01:08:18;;;;;;;34.63;20.80;;;;;;;;;;5096615;28;20403;-73
2021/12/02 01:10:45;;;;;;;31.75;21.25;;;;;;;;;;5096654;28;20058;-74
2021/12/02 01:13:11;;;;;;;31.77;20.17;;;;;;;;;;5114822;28;20495;-74
2021/12/02 01:15:37;;;;;;;36.88;21.02;;;;;;;;;;5115284;28;20480;-72
2021/12/02 01:18:04;;;;;;;32.85;19.48;;;;;;;;;;5115332;28;20024;-74
2021/12/02 01:20:31;;;;;;;39.35;22.05;;;;;;;;;;5115235;28;20027;-74
2021/12/02 01:22:59;;;;;;;40.50;22.75;;;;;;;;;;5114598;28;20383;-74
2021/12/02 01:25:25;;;;;;;33.90;20.88;;;;;;;;;;5096244;28;20105;-74
2021/12/02 01:27:52;;;;;;;31.83;19.70;;;;;;;;;;5114538;28;20104;-74
2021/12/02 01:30:19;;;;;;;38.63;20.98;;;;;;;;;;5114493;28;20115;-74
2021/12/02 01:32:46;;;;;;;32.03;19.67;;;;;;;;;;5114674;28;20357;-73
2021/12/02 01:35:13;;;;;;;34.00;19.55;;;;;;;;;;5114987;28;20023;-74
2021/12/02 01:37:40;;;;;;;38.50;21.08;;;;;;;;;;5114295;28;20080;-73
2021/12/02 01:40:07;;;;;;;37.42;20.70;;;;;;;;;;5114277;28;20053;-74
2021/12/02 01:42:39;;;;;;;29.83;19.00;;;;;;;;;;5114218;28;20480;-74
2021/12/02 01:45:06;;;;;;;35.55;20.88;;;;;;;;;;5114792;28;20028;-74
2021/12/02 01:47:33;;;;;;;38.05;20.50;;;;;;;;;;5114213;28;20024;-74
2021/12/02 01:50:01;;;;;;;35.05;20.63;;;;;;;;;;5114371;28;20024;-74
2021/12/02 01:52:31;;;;;;;32.00;18.75;;;;;;;;;;5095473;28;20024;-73
2021/12/02 01:55:08;;;;;;;43.33;22.58;;;;;;;;;;5095915;28;20360;-74
2021/12/02 01:57:35;;;;;;;39.60;19.90;;;;;;;;;;5095908;28;20023;-74
2021/12/02 02:00:14;;;;;;;33.65;19.55;;;;;;;;;;5114582;28;20456;-73
2021/12/02 02:02:40;;;;;;;32.40;17.45;;;;;;;;;;5079336;28;20059;-72
2021/12/02 02:05:11;;;;;;;33.13;20.25;;;;;;;;;;5113911;28;20112;-74
2021/12/02 02:07:41;;;;;;;37.05;21.33;;;;;;;;;;5113881;28;20028;-73
2021/12/02 02:10:08;;;;;;;30.73;18.52;;;;;;;;;;5095674;28;20036;-74
2021/12/02 02:12:34;;;;;;;35.70;20.75;;;;;;;;;;5114616;28;20027;-72
2021/12/02 02:15:02;;;;;;;35.15;20.08;;;;;;;;;;5113925;28;20034;-74
2021/12/02 02:17:39;;;;;;;38.92;20.70;;;;;;;;;;5095487;28;20024;-74
2021/12/02 02:20:08;;;;;;;38.55;21.92;;;;;;;;;;5095613;28;20020;-73
2021/12/02 02:22:34;;;;;;;25.02;13.52;;;;;;;;;;5095442;28;20495;-73
2021/12/02 02:25:01;;;;;;;13.50;7.40;;;;;;;;;;5095426;28;20090;-74
2021/12/02 02:27:27;;;;;;;14.40;6.60;;;;;;;;;;5113755;28;20023;-72
2021/12/02 02:29:53;;;;;;;10.80;5.90;;;;;;;;;;5113714;28;20031;-74
2021/12/02 02:32:24;;;;;;;11.18;5.32;;;;;;;;;;5113849;28;20039;-74
2021/12/02 02:34:50;;;;;;;7.97;4.53;;;;;;;;;;5113678;28;20085;-73
2021/12/02 02:37:17;;;;;;;15.55;10.10;;;;;;;;;;5114211;28;20475;-74
2021/12/02 02:39:43;;;;;;;18.38;10.95;;;;;;;;;;5113901;28;20020;-74
2021/12/02 02:42:09;;;;;;;17.67;9.95;;;;;;;;;;5095397;28;20031;-74
2021/12/02 02:44:37;;;;;;;14.90;8.80;;;;;;;;;;5113461;28;20085;-73
2021/12/02 02:47:04;;;;;;;8.10;5.40;;;;;;;;;;5095219;28;20027;-74
2021/12/02 02:49:30;;;;;;;11.43;5.43;;;;;;;;;;5113791;28;20028;-73
2021/12/02 02:51:56;;;;;;;7.82;5.63;;;;;;;;;;5113517;28;20051;-73
2021/12/02 02:54:23;;;;;;;9.45;5.15;;;;;;;;;;5113461;28;20464;-74
2021/12/02 02:57:05;;;;;;;7.63;5.18;;;;;;;;;;5113690;28;20074;-73
2021/12/02 02:59:42;;;;;;;8.82;5.03;;;;;;;;;;5095524;28;20375;-74
2021/12/02 03:02:21;;;;;;;9.63;5.00;;;;;;;;;;5095244;28;20039;-73
2021/12/02 03:04:56;;;;;;;7.28;4.70;;;;;;;;;;5098566;28;20051;-74
2021/12/02 03:07:34;;;;;;;7.00;3.90;;;;;;;;;;5099030;28;20479;-72
2021/12/02 03:12:39;;;;;;;7.10;3.95;;;;;;;;;;5117533;28;20068;-73
2021/12/02 03:17:33;;;;;;;5.70;3.40;;;;;;;;;;5117091;28;20020;-73
2021/12/02 03:19:59;;;;;;;5.18;3.33;;;;;;;;;;5099540;28;20023;-74
2021/12/02 03:22:25;;;;;;;6.75;3.55;;;;;;;;;;5098779;28;20468;-74
2021/12/02 03:24:52;;;;;;;5.65;2.97;;;;;;;;;;5117636;28;20031;-72
2021/12/02 03:27:18;;;;;;;4.75;3.20;;;;;;;;;;5098632;28;20489;-74
2021/12/02 03:29:45;;;;;;;7.30;3.38;;;;;;;;;;5116806;28;20112;-74
2021/12/02 03:32:11;;;;;;;4.72;2.42;;;;;;;;;;5116749;28;20081;-74
2021/12/02 03:34:38;;;;;;;6.70;2.70;;;;;;;;;;5116696;28;20059;-73
2021/12/02 03:37:05;;;;;;;4.32;2.50;;;;;;;;;;5116746;28;20069;-74
2021/12/02 03:39:31;;;;;;;6.63;2.47;;;;;;;;;;5117266;28;20020;-74
2021/12/02 03:41:58;;;;;;;4.47;2.60;;;;;;;;;;5116870;28;20039;-73
2021/12/02 03:44:25;;;;;;;4.22;2.55;;;;;;;;;;5098320;28;20024;-74
2021/12/02 03:46:51;;;;;;;4.68;2.75;;;;;;;;;;5098197;28;20088;-73
2021/12/02 03:49:18;;;;;;;6.00;2.97;;;;;;;;;;5116515;28;20035;-74
2021/12/02 03:51:47;;;;;;;6.57;2.92;;;;;;;;;;5116404;28;20031;-73
2021/12/02 03:54:14;;;;;;;8.38;3.25;;;;;;;;;;5116373;28;20020;-74
2021/12/02 03:56:40;;;;;;;9.18;3.33;;;;;;;;;;5116862;28;20478;-72
2021/12/02 03:59:06;;;;;;;9.70;3.78;;;;;;;;;;5098014;28;20024;-74
2021/12/02 04:01:32;;;;;;;8.13;4.00;;;;;;;;;;5116478;28;20035;-72
2021/12/02 04:03:59;;;;;;;11.80;4.47;;;;;;;;;;5097743;28;20490;-74
2021/12/02 04:06:26;;;;;;;14.57;5.07;;;;;;;;;;5116029;28;20046;-74
2021/12/02 04:09:06;;;;;;;25.65;7.20;;;;;;;;;;5116383;28;20026;-74
2021/12/02 04:11:41;;;;;;;20.73;7.32;;;;;;;;;;5116051;28;20028;-74
2021/12/02 04:16:38;;;;;;;11.20;4.38;;;;;;;;;;5115947;28;20027;-73
2021/12/02 04:19:05;;;;;;;15.25;4.80;;;;;;;;;;5097699;28;20023;-73
2021/12/02 04:21:32;;;;;;;12.75;5.10;;;;;;;;;;5097548;28;20080;-74
2021/12/02 04:23:59;;;;;;;17.67;5.78;;;;;;;;;;5116359;28;20016;-74
2021/12/02 04:26:25;;;;;;;26.52;9.63;;;;;;;;;;5097433;28;20063;-74
2021/12/02 04:28:52;;;;;;;32.00;10.73;;;;;;;;;;5115677;28;20023;-74
2021/12/02 04:31:18;;;;;;;22.92;8.15;;;;;;;;;;5115929;28;20069;-74
2021/12/02 04:33:48;;;;;;;11.75;4.90;;;;;;;;;;5115514;28;20027;-73
2021/12/02 04:36:14;;;;;;;10.07;5.35;;;;;;;;;;5097323;28;20548;-74
2021/12/02 04:38:40;;;;;;;10.98;5.53;;;;;;;;;;5097281;28;20023;-73
2021/12/02 04:41:06;;;;;;;8.63;5.63;;;;;;;;;;5115454;28;20396;-74
2021/12/02 04:43:33;;;;;;;13.38;6.00;;;;;;;;;;5097137;28;20391;-74
2021/12/02 04:45:59;;;;;;;10.80;6.30;;;;;;;;;;5096977;28;20476;-73
2021/12/02 04:48:25;;;;;;;9.50;5.43;;;;;;;;;;5115322;28;20383;-74
2021/12/02 04:50:53;;;;;;;13.25;5.45;;;;;;;;;;5115256;28;20023;-74
2021/12/02 04:53:19;;;;;;;8.07;5.22;;;;;;;;;;5096885;28;20123;-72
2021/12/02 04:55:45;;;;;;;10.23;5.63;;;;;;;;;;5097008;28;20114;-74
2021/12/02 04:58:12;;;;;;;9.00;5.28;;;;;;;;;;5115077;28;20111;-74
2021/12/02 05:00:38;;;;;;;10.63;6.25;;;;;;;;;;5115640;28;20036;-73
2021/12/02 05:03:04;;;;;;;9.07;5.70;;;;;;;;;;5115616;28;20478;-74
2021/12/02 05:05:32;;;;;;;9.05;5.38;;;;;;;;;;5093097;28;20056;-73
2021/12/02 05:08:00;;;;;;;10.48;5.40;;;;;;;;;;5093344;28;20057;-74
2021/12/02 05:10:26;;;;;;;10.55;5.45;;;;;;;;;;5093283;28;20032;-74
2021/12/02 05:12:52;;;;;;;8.85;5.30;;;;;;;;;;5093232;28;20035;-73
2021/12/02 05:15:18;;;;;;;12.95;6.13;;;;;;;;;;5093196;28;20039;-72
2021/12/02 05:17:45;;;;;;;10.45;5.60;;;;;;;;;;5094395;28;20122;-73
2021/12/02 05:20:11;;;;;;;10.85;4.55;;;;;;;;;;5094366;28;20035;-73
2021/12/02 05:22:38;;;;;;;10.77;4.05;;;;;;;;;;5092983;28;20051;-74
2021/12/02 05:25:04;;;;;;;16.88;5.05;;;;;;;;;;5093898;28;20032;-73
2021/12/02 05:27:30;;;;;;;13.45;4.25;;;;;;;;;;5093743;28;20028;-73
2021/12/02 05:29:57;;;;;;;17.08;5.45;;;;;;;;;;5092900;28;20118;-74
2021/12/02 05:32:23;;;;;;;15.18;5.50;;;;;;;;;;5092898;28;20028;-73
2021/12/02 05:34:49;;;;;;;17.27;6.00;;;;;;;;;;5092648;28;20024;-74
2021/12/02 05:37:16;;;;;;;13.52;5.20;;;;;;;;;;5092330;28;20132;-71
2021/12/02 05:39:42;;;;;;;13.15;4.30;;;;;;;;;;5092560;28;20051;-71
2021/12/02 05:42:08;;;;;;;11.23;4.00;;;;;;;;;;5093966;28;20032;-72
2021/12/02 05:44:35;;;;;;;12.45;5.15;;;;;;;;;;5092575;28;20034;-72
2021/12/02 05:47:01;;;;;;;7.88;4.45;;;;;;;;;;5093867;28;20036;-72
2021/12/02 05:49:27;;;;;;;6.43;3.80;;;;;;;;;;5092620;28;20560;-72
2021/12/02 05:51:54;;;;;;;9.02;4.97;;;;;;;;;;5092551;28;20476;-72
2021/12/02 05:54:21;;;;;;;10.15;4.78;;;;;;;;;;5087547;28;20020;-70
2021/12/02 05:56:47;;;;;;;9.65;4.25;;;;;;;;;;5082073;28;20111;-70
2021/12/02 05:59:13;;;;;;;10.95;4.85;;;;;;;;;;5091980;28;20020;-70
2021/12/02 06:01:43;;;;;;;12.45;4.70;;;;;;;;;;5093521;28;20028;-70
2021/12/02 06:04:10;;;;;;;10.02;5.22;;;;;;;;;;5091993;28;20047;-69
2021/12/02 06:06:36;;;;;;;8.82;4.38;;;;;;;;;;5092192;28;20028;-70
2021/12/02 06:09:03;;;;;;;19.55;11.10;;;;;;;;;;5093476;28;20020;-70
2021/12/02 06:11:29;;;;;;;10.07;5.90;;;;;;;;;;5092055;28;20369;-71
2021/12/02 06:13:55;;;;;;;17.92;9.50;;;;;;;;;;5092021;28;20060;-71
2021/12/02 06:16:21;;;;;;;13.63;8.68;;;;;;;;;;5091935;28;20028;-70
2021/12/02 06:18:48;;;;;;;18.95;11.13;;;;;;;;;;5093316;28;20028;-71
2021/12/02 06:21:14;;;;;;;23.48;11.05;;;;;;;;;;5092053;28;20047;-71
2021/12/02 06:23:41;;;;;;;17.58;9.32;;;;;;;;;;5091997;28;20024;-71
2021/12/02 06:26:08;;;;;;;16.65;8.70;;;;;;;;;;5091961;28;20040;-70
2021/12/02 06:28:34;;;;;;;14.60;9.23;;;;;;;;;;5091824;28;20029;-70
2021/12/02 06:31:02;;;;;;;16.33;10.00;;;;;;;;;;5092025;28;20032;-70
2021/12/02 06:33:29;;;;;;;15.93;9.85;;;;;;;;;;5093504;28;20016;-72
2021/12/02 06:35:56;;;;;;;16.65;8.90;;;;;;;;;;5091958;28;20111;-70
2021/12/02 06:38:22;;;;;;;16.85;9.57;;;;;;;;;;5096333;28;20026;-72
2021/12/02 06:40:48;;;;;;;14.25;8.80;;;;;;;;;;5097122;28;20067;-72
2021/12/02 06:43:15;;;;;;;17.20;9.18;;;;;;;;;;5097463;28;20024;-72
2021/12/02 06:45:42;;;;;;;20.77;9.32;;;;;;;;;;5096665;28;20085;-72
2021/12/02 06:48:08;;;;;;;16.88;9.02;;;;;;;;;;5097243;28;20518;-72
2021/12/02 06:50:36;;;;;;;16.13;8.93;;;;;;;;;;5096987;28;20032;-72
2021/12/02 06:53:02;;;;;;;14.52;9.02;;;;;;;;;;5097150;28;20020;-71
2021/12/02 06:55:28;;;;;;;17.00;8.82;;;;;;;;;;5095804;28;20028;-70
2021/12/02 06:57:55;;;;;;;14.88;9.52;;;;;;;;;;5095767;28;20024;-73
2021/12/02 07:00:22;;;;;;;16.58;9.18;;;;;;;;;;5095629;28;20052;-70
2021/12/02 07:02:49;;;;;;;17.10;9.60;;;;;;;;;;5095710;28;20035;-71
2021/12/02 07:05:16;;;;;;;15.90;9.93;;;;;;;;;;5109556;28;20048;-70
2021/12/02 07:07:43;;;;;;;19.50;10.57;;;;;;;;;;5117450;28;20096;-72
2021/12/02 07:10:11;;;;;;;25.58;12.95;;;;;;;;;;5117279;28;20020;-72
2021/12/02 07:12:40;;;;;;;25.27;12.45;;;;;;;;;;5098761;28;20430;-72
2021/12/02 07:15:18;;;;;;;23.45;12.38;;;;;;;;;;5098811;28;20024;-70
2021/12/02 07:17:50;;;;;;;20.73;11.13;;;;;;;;;;5098985;28;20039;-70
2021/12/02 07:20:16;;;;;;;19.83;11.20;;;;;;;;;;5117377;28;20483;-70
2021/12/02 07:22:42;;;;;;;20.20;10.65;;;;;;;;;;5117405;28;20080;-72
2021/12/02 07:25:12;;;;;;;21.45;10.65;;;;;;;;;;5117121;28;20040;-71
2021/12/02 07:27:38;;;;;;;21.98;11.30;;;;;;;;;;5117199;28;20028;-72
2021/12/02 07:30:06;;;;;;;24.77;10.90;;;;;;;;;;5116822;28;20027;-70
2021/12/02 07:32:36;;;;;;;17.80;10.57;;;;;;;;;;5098631;28;20053;-72
2021/12/02 07:35:08;;;;;;;19.23;9.77;;;;;;;;;;5116846;28;20599;-71
2021/12/02 07:37:49;;;;;;;18.60;10.43;;;;;;;;;;5116762;28;20024;-70
2021/12/02 07:40:16;;;;;;;22.48;11.50;;;;;;;;;;5116687;28;20028;-72
2021/12/02 07:42:44;;;;;;;21.33;11.77;;;;;;;;;;5098295;28;20023;-71
2021/12/02 07:45:10;;;;;;;28.83;13.68;;;;;;;;;;5116373;28;20031;-71
2021/12/02 07:47:38;;;;;;;27.15;15.10;;;;;;;;;;5116518;28;20072;-73
2021/12/02 07:50:05;;;;;;;29.73;14.30;;;;;;;;;;5097277;28;20028;-69
2021/12/02 07:52:35;;;;;;;23.33;14.20;;;;;;;;;;5098013;28;20799;-70
2021/12/02 07:55:07;;;;;;;21.08;10.65;;;;;;;;;;5097909;28;20030;-72
2021/12/02 07:57:40;;;;;;;17.63;10.25;;;;;;;;;;5097996;28;20028;-71
2021/12/02 08:00:07;;;;;;;15.68;8.88;;;;;;;;;;5097957;28;20028;-71
2021/12/02 08:02:35;;;;;;;18.90;8.45;;;;;;;;;;5116134;28;20024;-70
2021/12/02 08:05:02;;;;;;;13.75;7.95;;;;;;;;;;5115920;28;20555;-69
2021/12/02 08:07:28;;;;;;;16.88;8.98;;;;;;;;;;5116001;28;20028;-71
2021/12/02 08:09:54;;;;;;;15.13;8.88;;;;;;;;;;5097608;28;20072;-71
2021/12/02 08:12:20;;;;;;;15.85;8.50;;;;;;;;;;5115805;28;20026;-69
2021/12/02 08:14:49;;;;;;;15.93;10.30;;;;;;;;;;5097622;28;20460;-71
2021/12/02 08:17:15;;;;;;;12.38;8.40;;;;;;;;;;5116166;28;20023;-71
2021/12/02 08:19:42;;;;;;;14.88;7.60;;;;;;;;;;5115941;28;20405;-71
2021/12/02 08:22:08;;;;;;;12.43;7.97;;;;;;;;;;5115734;28;20383;-71
2021/12/02 08:24:34;;;;;;;12.98;7.18;;;;;;;;;;5097259;28;20040;-71
2021/12/02 08:27:00;;;;;;;14.07;7.45;;;;;;;;;;5116018;28;20065;-71
2021/12/02 08:29:27;;;;;;;12.43;7.50;;;;;;;;;;5097382;28;20034;-70
2021/12/02 08:31:53;;;;;;;12.95;7.13;;;;;;;;;;5115568;28;20106;-71
2021/12/02 08:34:19;;;;;;;10.05;6.43;;;;;;;;;;5097183;28;20023;-71
2021/12/02 08:36:49;;;;;;;16.33;8.07;;;;;;;;;;5115456;28;20016;-70
2021/12/02 08:39:18;;;;;;;13.13;7.90;;;;;;;;;;5097351;28;20027;-72
2021/12/02 08:41:47;;;;;;;14.60;7.68;;;;;;;;;;5097116;28;20365;-70
2021/12/02 08:44:14;;;;;;;13.13;7.72;;;;;;;;;;5097055;28;20115;-71
2021/12/02 08:46:41;;;;;;;18.50;8.02;;;;;;;;;;5115347;28;20046;-70
2021/12/02 08:49:07;;;;;;;13.95;7.60;;;;;;;;;;5096908;28;20077;-71
2021/12/02 08:51:33;;;;;;;18.33;9.00;;;;;;;;;;5096976;28;20030;-72
2021/12/02 08:54:00;;;;;;;18.83;8.45;;;;;;;;;;5097056;28;20027;-71
2021/12/02 08:56:26;;;;;;;16.88;8.65;;;;;;;;;;5096998;28;20024;-71
2021/12/02 08:58:53;;;;;;;10.93;5.03;;;;;;;;;;5114983;28;20027;-70
2021/12/02 09:01:19;;;;;;;9.43;4.40;;;;;;;;;;5096985;28;20020;-71
2021/12/02 09:03:45;;;;;;;13.40;4.00;;;;;;;;;;5114795;28;20043;-71
2021/12/02 09:06:12;;;;;;;10.98;4.93;;;;;;;;;;5096487;28;20036;-71
2021/12/02 09:08:40;;;;;;;9.45;4.40;;;;;;;;;;5114721;28;20024;-73
2021/12/02 09:11:06;;;;;;;6.75;4.05;;;;;;;;;;5096541;28;20024;-72
2021/12/02 09:13:32;;;;;;;9.65;4.53;;;;;;;;;;5096468;28;20034;-72
2021/12/02 09:15:58;;;;;;;11.52;4.47;;;;;;;;;;5114775;28;20020;-71
2021/12/02 09:18:25;;;;;;;10.00;4.80;;;;;;;;;;5114662;28;20100;-71
2021/12/02 09:20:52;;;;;;;10.70;4.53;;;;;;;;;;5096373;28;20024;-70
2021/12/02 09:23:18;;;;;;;13.10;4.72;;;;;;;;;;5096871;28;20119;-69
2021/12/02 09:25:44;;;;;;;11.27;5.00;;;;;;;;;;5114507;28;20031;-69
2021/12/02 09:28:10;;;;;;;8.80;4.45;;;;;;;;;;5096205;28;20020;-70
2021/12/02 09:30:38;;;;;;;10.73;4.20;;;;;;;;;;5114240;28;20019;-70
2021/12/02 09:33:04;;;;;;;6.63;3.40;;;;;;;;;;5114656;28;20043;-69
2021/12/02 09:35:31;;;;;;;6.25;3.47;;;;;;;;;;5096160;28;20028;-69
2021/12/02 09:37:57;;;;;;;7.65;3.70;;;;;;;;;;5096056;28;20027;-68
2021/12/02 09:40:23;;;;;;;7.28;4.22;;;;;;;;;;5095978;28;20034;-70
2021/12/02 09:42:49;;;;;;;7.57;4.20;;;;;;;;;;5095750;28;20072;-70
2021/12/02 09:45:16;;;;;;;12.77;5.38;;;;;;;;;;5095583;28;20506;-70
2021/12/02 09:47:44;;;;;;;13.07;6.63;;;;;;;;;;5095836;28;20432;-70
2021/12/02 09:50:21;;;;;;;15.85;6.70;;;;;;;;;;5095698;28;20432;-70
2021/12/02 09:52:48;;;;;;;15.73;6.65;;;;;;;;;;5095739;28;20387;-71
2021/12/02 09:55:22;;;;;;;14.38;5.85;;;;;;;;;;5114078;28;20028;-70
2021/12/02 09:57:55;;;;;;;13.48;6.15;;;;;;;;;;5096019;28;20108;-69
2021/12/02 10:00:29;;;;;;;12.57;5.80;;;;;;;;;;5113919;28;20043;-69
2021/12/02 10:03:01;;;;;;;12.98;5.10;;;;;;;;;;5095714;28;20119;-69
2021/12/02 10:05:30;;;;;;;9.30;4.88;;;;;;;;;;5091923;28;20050;-70
2021/12/02 10:08:01;;;;;;;7.32;4.97;;;;;;;;;;5092294;28;20093;-69
2021/12/02 10:10:34;;;;;;;9.65;5.32;;;;;;;;;;5092136;28;20032;-71
2021/12/02 10:13:07;;;;;;;8.18;4.65;;;;;;;;;;5092323;28;20427;-70
2021/12/02 10:15:37;;;;;;;;;;;;;;;;;;5092657;28;20016;-70
2021/12/02 10:18:10;;;;;;;7.05;4.45;;;;;;;;;;5092184;28;19995;-70
2021/12/02 10:20:43;;;;;;;7.47;4.80;;;;;;;;;;5093294;28;20030;-69
2021/12/02 10:23:23;;;;;;;9.05;5.28;;;;;;;;;;5093419;28;20028;-69
2021/12/02 10:25:56;;;;;;;8.55;4.57;;;;;;;;;;5093530;28;20039;-69
2021/12/02 10:28:23;;;;;;;6.40;4.25;;;;;;;;;;5093375;28;20020;-70
2021/12/02 10:31:00;;;;;;;6.15;4.30;;;;;;;;;;5092035;28;20040;-70
2021/12/02 10:33:35;;;;;;;8.90;4.50;;;;;;;;;;5093381;28;20027;-70
2021/12/02 10:36:02;;;;;;;6.93;3.53;;;;;;;;;;5092023;28;20020;-70
2021/12/02 10:38:40;;;;;;;8.27;4.38;;;;;;;;;;5091948;28;20039;-69
2021/12/02 10:41:17;;;;;;;12.25;4.55;;;;;;;;;;5091970;28;20029;-70
2021/12/02 10:44:01;;;;;;;9.82;4.30;;;;;;;;;;5091972;28;20101;-70
2021/12/02 10:46:30;;;;;;;6.45;3.85;;;;;;;;;;5091686;28;20040;-69
2021/12/02 10:48:56;;;;;;;13.05;4.07;;;;;;;;;;5091822;28;20035;-70
2021/12/02 10:51:36;;;;;;;7.68;4.05;;;;;;;;;;5072325;28;20090;-68
2021/12/02 10:54:04;;;;;;;8.00;4.00;;;;;;;;;;5072867;28;20024;-69
2021/12/02 10:56:31;;;;;;;8.70;4.38;;;;;;;;;;5054951;28;20031;-69
2021/12/02 10:58:57;;;;;;;8.80;4.00;;;;;;;;;;5072854;28;20056;-69
2021/12/02 11:01:39;;;;;;;6.90;4.35;;;;;;;;;;5071579;28;20021;-69
2021/12/02 11:04:06;;;;;;;8.80;4.30;;;;;;;;;;5074021;28;20094;-69
2021/12/02 11:06:46;;;;;;;7.03;4.05;;;;;;;;;;5074741;28;20404;-69
2021/12/02 11:09:24;;;;;;;8.15;3.95;;;;;;;;;;5074797;28;20085;-69
2021/12/02 11:12:09;;;;;;;9.52;4.28;;;;;;;;;;5074682;28;20044;-69
2021/12/02 11:14:56;;;;;;;6.72;4.70;;;;;;;;;;5074646;28;20026;-70
2021/12/02 11:17:22;;;;;;;8.38;4.70;;;;;;;;;;5074571;28;20388;-69
2021/12/02 11:19:49;;;;;;;8.38;5.18;;;;;;;;;;5092999;28;20051;-70
2021/12/02 11:22:21;;;;;;;10.32;5.30;;;;;;;;;;5074546;28;20031;-69
2021/12/02 11:24:48;;;;;;;8.90;5.32;;;;;;;;;;5076460;28;20127;-69
2021/12/02 11:27:14;;;;;;;11.95;5.63;;;;;;;;;;5096439;28;20024;-70
2021/12/02 11:29:47;;;;;;;9.10;5.40;;;;;;;;;;5096555;28;20035;-69
2021/12/02 11:32:30;;;;;;;10.45;5.18;;;;;;;;;;5078219;28;20020;-69
2021/12/02 11:35:01;;;;;;;13.40;5.30;;;;;;;;;;5078246;28;20040;-69
2021/12/02 11:37:27;;;;;;;10.23;4.30;;;;;;;;;;5078075;28;20055;-69
2021/12/02 11:39:55;;;;;;;9.80;4.35;;;;;;;;;;5077988;28;20069;-69
2021/12/02 11:42:22;;;;;;;10.00;4.38;;;;;;;;;;5077870;28;20532;-69
2021/12/02 11:44:49;;;;;;;16.88;5.00;;;;;;;;;;5095957;28;20499;-69
2021/12/02 11:47:16;;;;;;;14.40;5.28;;;;;;;;;;5077888;28;20035;-68
2021/12/02 11:49:42;;;;;;;10.15;4.40;;;;;;;;;;5084064;28;20491;-69
2021/12/02 11:52:08;;;;;;;10.32;4.97;;;;;;;;;;5116287;28;20034;-69
2021/12/02 11:54:36;;;;;;;11.10;4.43;;;;;;;;;;5116191;28;20028;-69
2021/12/02 11:57:02;;;;;;;11.35;4.88;;;;;;;;;;5097956;28;20484;-69
2021/12/02 11:59:29;;;;;;;13.52;5.20;;;;;;;;;;5097882;28;20027;-69
2021/12/02 12:01:56;;;;;;;17.65;6.15;;;;;;;;;;5116342;28;20023;-69
2021/12/02 12:04:22;;;;;;;14.55;5.15;;;;;;;;;;5093852;28;20054;-68
2021/12/02 12:06:54;;;;;;;7.97;4.38;;;;;;;;;;5095709;28;20035;-69
2021/12/02 12:09:25;;;;;;;10.93;4.10;;;;;;;;;;5096004;28;20431;-69
2021/12/02 12:11:52;;;;;;;6.63;3.78;;;;;;;;;;5094421;28;20062;-69
2021/12/02 12:14:32;;;;;;;8.48;4.10;;;;;;;;;;5094109;28;20484;-70
2021/12/02 12:17:09;;;;;;;5.20;3.38;;;;;;;;;;5094272;28;20468;-70
2021/12/02 12:19:40;;;;;;;5.18;3.25;;;;;;;;;;5094122;28;20440;-70
2021/12/02 12:22:08;;;;;;;5.00;3.17;;;;;;;;;;5094153;28;20028;-70
2021/12/02 12:24:40;;;;;;;6.72;3.15;;;;;;;;;;5093875;28;20055;-70
2021/12/02 12:27:14;;;;;;;14.35;5.20;;;;;;;;;;5095316;28;20476;-70
2021/12/02 12:29:40;;;;;;;10.07;4.80;;;;;;;;;;5095272;28;20515;-71
2021/12/02 12:32:18;;;;;;;8.05;3.63;;;;;;;;;;5093888;28;20024;-71
2021/12/02 12:35:00;;;;;;;7.47;3.03;;;;;;;;;;5093537;28;20063;-71
2021/12/02 12:40:07;;;;;;;6.40;3.17;;;;;;;;;;5095023;28;20103;-73
2021/12/02 12:42:34;;;;;;;5.90;3.47;;;;;;;;;;5094936;28;20053;-72
2021/12/02 12:45:01;;;;;;;4.35;2.30;;;;;;;;;;5093603;28;20112;-71
2021/12/02 12:47:42;;;;;;;6.15;2.67;;;;;;;;;;5094879;28;20028;-71
2021/12/02 12:50:21;;;;;;;6.72;2.85;;;;;;;;;;5094769;28;20028;-70
2021/12/02 12:52:47;;;;;;;5.63;2.78;;;;;;;;;;5094842;28;20475;-70
2021/12/02 12:55:17;;;;;;;7.43;2.60;;;;;;;;;;5095042;28;20026;-71
2021/12/02 12:58:02;;;;;;;8.13;3.78;;;;;;;;;;5093379;28;20077;-72
2021/12/02 13:00:38;;;;;;;6.65;3.35;;;;;;;;;;5093245;28;20032;-70
2021/12/02 13:03:09;;;;;;;5.95;3.17;;;;;;;;;;5094935;28;20027;-71
2021/12/02 13:05:55;;;;;;;6.75;3.28;;;;;;;;;;5108962;28;20043;-71
2021/12/02 13:08:31;;;;;;;5.63;2.80;;;;;;;;;;5096362;28;20024;-71
2021/12/02 13:11:02;;;;;;;5.85;2.80;;;;;;;;;;5115087;28;20023;-70
2021/12/02 13:13:30;;;;;;;4.60;2.20;;;;;;;;;;5114796;28;20383;-72
2021/12/02 13:16:11;;;;;;;4.78;2.30;;;;;;;;;;5096338;28;20484;-70
2021/12/02 13:18:39;;;;;;;6.20;2.33;;;;;;;;;;5114340;28;20019;-71
2021/12/02 13:21:24;;;;;;;4.68;1.90;;;;;;;;;;5096251;28;20506;-70
2021/12/02 13:23:56;;;;;;;3.67;1.98;;;;;;;;;;5096167;28;20118;-71
2021/12/02 13:26:24;;;;;;;6.50;2.30;;;;;;;;;;5114137;28;20034;-71
2021/12/02 13:28:51;;;;;;;5.05;2.42;;;;;;;;;;5096940;28;20027;-71
2021/12/02 13:31:18;;;;;;;9.13;3.60;;;;;;;;;;5096012;28;20503;-71
2021/12/02 13:33:46;;;;;;;4.28;2.13;;;;;;;;;;5114202;28;20024;-69
2021/12/02 13:36:14;;;;;;;6.15;2.40;;;;;;;;;;5114205;28;20027;-72
2021/12/02 13:38:41;;;;;;;5.43;2.45;;;;;;;;;;5095820;28;20400;-71
2021/12/02 13:41:15;;;;;;;6.95;2.35;;;;;;;;;;5095834;28;20016;-71
2021/12/02 13:43:53;;;;;;;5.60;2.20;;;;;;;;;;5095806;28;20023;-72
2021/12/02 13:46:29;;;;;;;10.50;2.20;;;;;;;;;;5113381;28;20031;-74
2021/12/02 13:48:58;;;;;;;3.70;1.58;;;;;;;;;;5113969;28;20020;-72
2021/12/02 13:54:19;;;;;;;3.58;1.70;;;;;;;;;;5093728;28;20039;-72
2021/12/02 13:56:46;;;;;;;5.00;1.80;;;;;;;;;;5075300;28;20024;-73
2021/12/02 13:59:14;;;;;;;3.88;1.80;;;;;;;;;;5095074;28;20034;-72
2021/12/02 14:01:57;;;;;;;5.25;2.55;;;;;;;;;;5095580;28;20024;-70
2021/12/02 14:04:27;;;;;;;7.50;3.47;;;;;;;;;;5113549;28;20508;-73
2021/12/02 14:07:14;;;;;;;9.38;3.08;;;;;;;;;;5113465;28;20043;-71
2021/12/02 14:09:49;;;;;;;5.55;2.58;;;;;;;;;;5114044;28;20082;-73
2021/12/02 14:12:15;;;;;;;4.93;1.95;;;;;;;;;;5113571;28;20034;-72
2021/12/02 14:15:16;;;;;;;2.55;1.30;;;;;;;;;;5095400;28;20081;-72
2021/12/02 14:17:53;;;;;;;2.58;1.30;;;;;;;;;;5060197;28;20051;-71
2021/12/02 14:20:23;;;;;;;4.03;1.60;;;;;;;;;;5113556;28;20023;-72
2021/12/02 14:22:51;;;;;;;3.08;1.35;;;;;;;;;;5095314;28;20069;-73
2021/12/02 14:25:19;;;;;;;2.60;1.38;;;;;;;;;;5113514;28;20085;-73
2021/12/02 14:28:04;;;;;;;2.45;1.23;;;;;;;;;;5113640;28;20106;-71
2021/12/02 14:30:36;;;;;;;4.88;1.77;;;;;;;;;;5113554;28;20094;-73
2021/12/02 14:33:07;;;;;;;2.67;1.52;;;;;;;;;;5113616;28;20028;-71
2021/12/02 14:35:50;;;;;;;3.08;1.45;;;;;;;;;;5113784;28;20077;-72
2021/12/02 14:38:25;;;;;;;3.85;1.77;;;;;;;;;;5094750;28;20476;-71
2021/12/02 14:40:56;;;;;;;3.30;1.50;;;;;;;;;;5113382;28;20076;-71
2021/12/02 14:43:33;;;;;;;3.20;1.50;;;;;;;;;;5113424;28;20023;-70
2021/12/02 14:46:13;;;;;;;4.68;1.73;;;;;;;;;;5113419;28;20050;-72
2021/12/02 14:48:39;;;;;;;2.85;1.50;;;;;;;;;;5113350;28;20150;-72
2021/12/02 14:51:07;;;;;;;3.13;1.60;;;;;;;;;;5113246;28;20024;-72
2021/12/02 14:53:35;;;;;;;4.35;1.90;;;;;;;;;;5095492;28;20051;-72
2021/12/02 14:56:05;;;;;;;3.30;1.83;;;;;;;;;;5095087;28;20023;-71
2021/12/02 14:58:32;;;;;;;7.28;1.83;;;;;;;;;;5114937;28;20043;-72